Time;durP1;ratioP1;P1;durP2;ratioP2;P2;SDS_P1;SDS_P2;PMS_P1;PMS_P2;Temp;Humidity;BMP_temperature;BMP_pressure;BME280_temperature;BME280_humidity;BME280_pressure;Samples;Min_cycle;Max_cycle;Signal;HPM_P1;HPM_P2
2022/08/05 00:01:32;;;;;;;10.85;4.68;;;;;;;19.97;100.00;101429.63;5056396;28;20060;-52
2022/08/05 00:03:57;;;;;;;9.10;4.70;;;;;;;19.93;100.00;101423.78;5057210;28;20380;-51
2022/08/05 00:06:23;;;;;;;11.00;5.20;;;;;;;19.80;100.00;101440.03;5060568;28;20133;-48
2022/08/05 00:08:49;;;;;;;6.43;4.35;;;;;;;19.77;100.00;101443.97;5068168;28;20166;-49
2022/08/05 00:11:15;;;;;;;11.70;4.53;;;;;;;19.67;100.00;101438.97;5075915;28;20016;-51
2022/08/05 00:13:41;;;;;;;8.82;4.95;;;;;;;19.68;100.00;101434.38;5073540;28;20051;-51
2022/08/05 00:16:08;;;;;;;10.30;4.78;;;;;;;19.73;100.00;101442.72;5068536;28;20031;-50
2022/08/05 00:18:35;;;;;;;14.27;5.20;;;;;;;19.76;100.00;101439.63;5075479;28;20107;-51
2022/08/05 00:21:00;;;;;;;10.32;4.85;;;;;;;19.79;100.00;101439.22;5076118;28;20436;-51
2022/08/05 00:23:26;;;;;;;9.15;4.80;;;;;;;19.83;100.00;101440.47;5063377;28;20055;-51
2022/08/05 00:25:51;;;;;;;14.35;5.20;;;;;;;19.92;100.00;101439.22;5053586;28;20051;-48
2022/08/05 00:28:16;;;;;;;12.32;5.07;;;;;;;19.95;100.00;101432.53;5055118;28;20074;-50
2022/08/05 00:30:42;;;;;;;7.53;4.60;;;;;;;19.94;100.00;101430.84;5054298;28;20123;-51
2022/08/05 00:33:08;;;;;;;9.80;4.82;;;;;;;19.99;100.00;101441.91;5055558;28;20020;-51
2022/08/05 00:35:34;;;;;;;12.38;4.57;;;;;;;19.86;100.00;101436.50;5059857;28;20417;-51
2022/08/05 00:37:59;;;;;;;12.15;5.10;;;;;;;19.84;100.00;101434.00;5058545;28;20104;-51
2022/08/05 00:40:26;;;;;;;13.85;5.30;;;;;;;19.85;100.00;101434.81;5053134;28;20051;-51
2022/08/05 00:42:52;;;;;;;14.57;5.05;;;;;;;19.84;100.00;101442.13;5054492;28;20538;-51
2022/08/05 00:45:17;;;;;;;12.95;4.90;;;;;;;19.86;100.00;101450.06;5053629;28;20111;-50
2022/08/05 00:47:43;;;;;;;10.02;4.60;;;;;;;19.86;100.00;101450.06;5064662;28;20085;-52
2022/08/05 00:50:09;;;;;;;12.55;4.93;;;;;;;19.77;100.00;101448.59;5063904;28;20032;-49
2022/08/05 00:52:35;;;;;;;11.48;4.70;;;;;;;19.76;100.00;101445.03;5073970;28;20028;-50
2022/08/05 00:55:00;;;;;;;14.13;4.65;;;;;;;19.69;100.00;101453.13;5074104;28;20694;-49
2022/08/05 00:57:26;;;;;;;12.35;4.43;;;;;;;19.71;100.00;101447.50;5075570;28;20041;-48
2022/08/05 00:59:52;;;;;;;13.43;4.38;;;;;;;19.70;100.00;101451.25;5073885;28;20032;-51
2022/08/05 01:02:17;;;;;;;10.80;4.35;;;;;;;19.67;100.00;101446.25;5064402;28;20122;-47
2022/08/05 01:04:42;;;;;;;14.50;4.68;;;;;;;19.66;100.00;101460.84;5061936;28;20553;-50
2022/08/05 01:07:08;;;;;;;12.02;4.32;;;;;;;19.59;100.00;101462.72;5062074;28;20533;-51
2022/08/05 01:09:33;;;;;;;13.57;4.60;;;;;;;19.56;100.00;101461.25;5063186;28;20024;-50
2022/08/05 01:12:05;;;;;;;13.10;4.47;;;;;;;19.51;100.00;101461.03;5075953;28;20103;-47
2022/08/05 01:14:44;;;;;;;12.00;4.68;;;;;;;19.50;100.00;101473.75;5066598;28;20061;-51
2022/08/05 01:17:20;;;;;;;13.35;4.70;;;;;;;19.45;100.00;101469.97;5070152;28;20039;-49
2022/08/05 01:20:20;;;;;;;17.70;4.78;;;;;;;19.43;100.00;101469.34;5059475;28;20047;-50
2022/08/05 01:23:10;;;;;;;13.63;4.63;;;;;;;19.38;100.00;101484.34;5057061;28;20093;-52
2022/08/05 01:26:07;;;;;;;12.98;4.55;;;;;;;19.30;100.00;101479.09;5071719;28;20396;-47
2022/08/05 01:28:35;;;;;;;12.48;4.35;;;;;;;19.33;100.00;101486.81;5075031;28;20016;-51
2022/08/05 01:31:07;;;;;;;12.55;3.90;;;;;;;19.39;100.00;101493.28;5074766;28;20508;-51
2022/08/05 01:33:38;;;;;;;13.43;4.43;;;;;;;19.34;100.00;101496.59;5064490;28;20020;-52
2022/08/05 01:36:09;;;;;;;15.55;4.32;;;;;;;19.32;100.00;101508.69;5055408;28;20054;-52
2022/08/05 01:38:36;;;;;;;16.45;4.70;;;;;;;19.28;100.00;101502.00;5054007;28;20020;-51
2022/08/05 01:41:04;;;;;;;15.02;4.60;;;;;;;19.31;100.00;101502.41;5062906;28;20039;-47
2022/08/05 01:43:31;;;;;;;12.02;4.20;;;;;;;19.30;100.00;101506.19;5075635;28;20556;-50
2022/08/05 01:45:57;;;;;;;16.58;4.22;;;;;;;19.32;100.00;101509.53;5058206;28;20024;-50
2022/08/05 01:48:26;;;;;;;15.23;4.38;;;;;;;19.44;100.00;101507.06;5066503;28;20031;-50
2022/08/05 01:50:52;;;;;;;11.85;4.28;;;;;;;19.43;100.00;101494.53;5062525;28;20028;-47
2022/08/05 01:53:21;;;;;;;11.30;4.38;;;;;;;19.37;100.00;101493.50;5059977;28;20078;-47
2022/08/05 01:55:49;;;;;;;12.07;4.20;;;;;;;19.37;100.00;101492.66;5061444;28;20027;-50
2022/08/05 01:58:15;;;;;;;15.85;4.32;;;;;;;19.36;100.00;101491.00;5078683;28;20080;-47
2022/08/05 02:00:45;;;;;;;10.23;4.00;;;;;;;19.37;100.00;101484.53;5071481;28;20328;-52
2022/08/05 02:03:23;;;;;;;11.35;3.90;;;;;;;19.29;100.00;101474.72;5058298;28;20581;-49
2022/08/05 02:05:52;;;;;;;11.93;4.50;;;;;;;19.26;100.00;101474.28;5057918;28;20048;-49
2022/08/05 02:08:18;;;;;;;19.52;4.07;;;;;;;19.25;100.00;101473.47;5057711;28;20031;-48
2022/08/05 02:10:50;;;;;;;10.35;3.67;;;;;;;19.29;100.00;101472.00;5056567;28;20024;-49
2022/08/05 02:13:19;;;;;;;13.02;4.10;;;;;;;19.34;100.00;101466.81;5074159;28;20470;-50
2022/08/05 02:15:52;;;;;;;15.63;3.97;;;;;;;19.32;100.00;101454.53;5053271;28;20035;-48
2022/08/05 02:18:29;;;;;;;12.02;4.18;;;;;;;19.24;100.00;101457.41;5053112;28;20021;-50
2022/08/05 02:21:32;;;;;;;13.60;4.15;;;;;;;19.27;100.00;101443.47;5059718;28;20503;-50
2022/08/05 02:24:04;;;;;;;12.85;4.60;;;;;;;19.24;100.00;101447.41;5029925;28;20893;-51
2022/08/05 02:26:38;;;;;;;19.70;4.75;;;;;;;19.17;100.00;101470.94;5074990;28;20163;-51
2022/08/05 02:29:06;;;;;;;16.05;4.60;;;;;;;19.20;100.00;101465.13;5063767;28;20063;-51
2022/08/05 02:31:34;;;;;;;11.55;4.72;;;;;;;19.24;100.00;101460.13;5058166;28;20026;-51
2022/08/05 02:34:06;;;;;;;12.52;4.40;;;;;;;19.25;100.00;101448.25;5057697;28;20047;-50
2022/08/05 02:36:35;;;;;;;13.10;4.35;;;;;;;19.24;100.00;101452.81;5058145;28;20036;-51
2022/08/05 02:39:05;;;;;;;14.75;4.90;;;;;;;19.27;100.00;101478.69;5065015;28;20062;-49
2022/08/05 02:41:32;;;;;;;11.13;4.60;;;;;;;19.26;100.00;101493.25;5078487;28;20965;-49
2022/08/05 02:44:00;;;;;;;15.50;4.70;;;;;;;19.24;100.00;101498.88;5072759;28;20142;-52
2022/08/05 02:46:27;;;;;;;11.25;4.65;;;;;;;19.22;100.00;101500.94;5073673;28;20454;-50
2022/08/05 02:48:54;;;;;;;9.68;4.55;;;;;;;19.25;100.00;101486.19;5063591;28;20499;-50
2022/08/05 02:51:20;;;;;;;11.63;5.05;;;;;;;19.29;100.00;101484.72;5057733;28;20025;-50
2022/08/05 02:53:47;;;;;;;15.10;5.05;;;;;;;19.26;100.00;101488.66;5073726;28;20032;-50
2022/08/05 02:56:13;;;;;;;14.23;4.65;;;;;;;19.26;100.00;101491.38;5075868;28;20036;-47
2022/08/05 02:58:40;;;;;;;13.77;4.80;;;;;;;19.29;100.00;101482.00;5062788;28;20447;-51
2022/08/05 03:01:08;;;;;;;12.32;4.78;;;;;;;19.33;100.00;101478.69;5054678;28;20045;-51
2022/08/05 03:03:38;;;;;;;12.15;4.57;;;;;;;19.30;100.00;101465.56;5037151;28;20037;-48
2022/08/05 03:06:04;;;;;;;15.98;5.00;;;;;;;19.35;100.00;101452.25;5066036;28;20498;-50
2022/08/05 03:08:29;;;;;;;15.18;4.65;;;;;;;19.37;100.00;101458.28;5057643;28;20049;-50
2022/08/05 03:10:55;;;;;;;14.93;4.95;;;;;;;19.35;100.00;101454.94;5054549;28;20376;-49
2022/08/05 03:13:20;;;;;;;13.10;4.95;;;;;;;19.31;100.00;101469.91;5056699;28;20020;-51
2022/08/05 03:15:46;;;;;;;14.45;5.38;;;;;;;19.28;100.00;101464.94;5055862;28;20021;-52
2022/08/05 03:18:13;;;;;;;14.60;4.97;;;;;;;19.06;100.00;101466.09;5063811;28;20024;-51
2022/08/05 03:20:38;;;;;;;15.82;5.13;;;;;;;19.03;100.00;101478.16;5063863;28;20047;-49
2022/08/05 03:23:06;;;;;;;21.25;5.15;;;;;;;18.99;100.00;101483.16;5069330;28;20028;-48
2022/08/05 03:25:33;;;;;;;20.33;5.35;;;;;;;18.95;100.00;101490.00;5075300;28;20028;-52
2022/08/05 03:28:00;;;;;;;16.55;4.80;;;;;;;19.00;100.00;101490.22;5066144;28;20037;-49
2022/08/05 03:30:27;;;;;;;17.42;4.68;;;;;;;18.97;100.00;101482.50;5060985;28;20037;-52
2022/08/05 03:32:53;;;;;;;16.13;4.93;;;;;;;19.01;100.00;101486.50;5056494;28;20060;-51
2022/08/05 03:35:20;;;;;;;13.57;5.13;;;;;;;18.99;100.00;101490.41;5063358;28;20050;-51
2022/08/05 03:37:45;;;;;;;15.00;4.95;;;;;;;18.94;100.00;101498.31;5076475;28;20020;-50
2022/08/05 03:40:11;;;;;;;14.30;4.85;;;;;;;18.93;100.00;101508.31;5074373;28;20032;-51
2022/08/05 03:42:38;;;;;;;17.08;5.25;;;;;;;18.91;100.00;101512.28;5076536;28;20024;-50
2022/08/05 03:45:04;;;;;;;10.77;4.90;;;;;;;18.94;100.00;101501.88;5074270;28;20027;-51
2022/08/05 03:47:30;;;;;;;14.35;5.13;;;;;;;18.99;100.00;101499.41;5076730;28;20012;-51
2022/08/05 03:49:55;;;;;;;12.82;5.20;;;;;;;18.99;100.00;101485.88;5070826;28;20024;-51
2022/08/05 03:52:28;;;;;;;10.73;4.97;;;;;;;18.95;100.00;101476.47;5072272;28;20024;-51
2022/08/05 03:55:00;;;;;;;21.10;5.65;;;;;;;18.95;100.00;101473.75;5054901;28;20032;-51
2022/08/05 03:57:31;;;;;;;10.27;4.60;;;;;;;18.89;100.00;101471.88;5075839;28;20044;-48
2022/08/05 04:00:02;;;;;;;11.77;4.88;;;;;;;18.99;100.00;101480.44;5053952;28;20034;-51
2022/08/05 04:02:31;;;;;;;16.65;5.10;;;;;;;19.00;100.00;101473.97;5076519;28;20117;-52
2022/08/05 04:04:57;;;;;;;15.15;5.22;;;;;;;18.99;100.00;101466.06;5069789;28;20035;-51
2022/08/05 04:07:23;;;;;;;14.68;5.07;;;;;;;18.89;100.00;101458.34;5055837;28;20249;-49
2022/08/05 04:09:48;;;;;;;17.75;5.30;;;;;;;18.85;100.00;101464.34;5054182;28;20388;-48
2022/08/05 04:12:14;;;;;;;21.42;5.25;;;;;;;18.77;100.00;101460.75;5055817;28;20035;-51
2022/08/05 04:14:41;;;;;;;14.70;4.90;;;;;;;18.73;100.00;101462.16;5069842;28;20108;-53
2022/08/05 04:17:07;;;;;;;16.88;5.47;;;;;;;18.67;100.00;101472.94;5035695;28;20039;-53
2022/08/05 04:19:41;;;;;;;11.27;4.80;;;;;;;18.66;100.00;101463.19;5039938;28;20021;-48
2022/08/05 04:22:06;;;;;;;14.73;5.40;;;;;;;18.64;100.00;101466.91;5057660;28;20028;-51
2022/08/05 04:24:31;;;;;;;16.85;5.15;;;;;;;18.66;100.00;101474.81;5063723;28;20164;-50
2022/08/05 04:26:57;;;;;;;18.55;5.20;;;;;;;18.68;100.00;101472.75;5075907;28;20439;-50
2022/08/05 04:29:22;;;;;;;17.15;5.03;;;;;;;18.67;100.00;101479.22;5073508;28;20564;-49
2022/08/05 04:31:47;;;;;;;14.88;5.03;;;;;;;18.66;100.00;101487.53;5055091;28;20435;-51
2022/08/05 04:34:12;;;;;;;19.92;5.28;;;;;;;18.69;100.00;101487.13;5065114;28;20477;-48
2022/08/05 04:36:38;;;;;;;12.27;5.28;;;;;;;18.67;100.00;101492.75;5059121;28;20028;-50
2022/08/05 04:39:03;;;;;;;16.48;5.10;;;;;;;18.68;100.00;101498.97;5074058;28;20028;-52
2022/08/05 04:41:30;;;;;;;11.57;4.70;;;;;;;18.70;100.00;101494.19;5076346;28;20103;-52
2022/08/05 04:43:56;;;;;;;16.50;5.28;;;;;;;18.74;100.00;101506.31;5074455;28;20154;-50
2022/08/05 04:46:21;;;;;;;14.38;4.72;;;;;;;18.72;100.00;101500.25;5072455;28;20439;-52
2022/08/05 04:48:46;;;;;;;14.60;5.03;;;;;;;18.70;100.00;101494.19;5055294;28;20039;-50
2022/08/05 04:51:12;;;;;;;13.93;4.63;;;;;;;18.61;100.00;101490.81;5054339;28;20033;-51
2022/08/05 04:53:38;;;;;;;18.15;5.20;;;;;;;18.61;100.00;101497.06;5055333;28;20497;-51
2022/08/05 04:56:04;;;;;;;14.40;4.50;;;;;;;18.56;100.00;101502.22;5053974;28;20795;-48
2022/08/05 04:58:29;;;;;;;12.40;4.90;;;;;;;18.57;100.00;101508.50;5062984;28;20059;-50
2022/08/05 05:00:54;;;;;;;12.50;4.50;;;;;;;18.55;100.00;101497.88;5059865;28;20028;-47
2022/08/05 05:03:19;;;;;;;14.15;4.80;;;;;;;18.57;100.00;101497.69;5050582;28;20136;-49
2022/08/05 05:05:45;;;;;;;11.45;4.55;;;;;;;18.53;100.00;101496.38;5054960;28;20472;-50
2022/08/05 05:08:10;;;;;;;15.82;4.28;;;;;;;18.47;100.00;101486.38;5054832;28;20096;-48
2022/08/05 05:10:41;;;;;;;11.82;4.30;;;;;;;18.42;100.00;101495.06;5051097;28;20124;-51
2022/08/05 05:13:13;;;;;;;12.80;4.03;;;;;;;18.44;100.00;101493.81;5055287;28;20071;-50
2022/08/05 05:15:39;;;;;;;12.68;3.70;;;;;;;18.43;100.00;101489.47;5051146;28;20047;-48
2022/08/05 05:18:04;;;;;;;12.88;4.20;;;;;;;18.44;100.00;101498.41;5055085;28;20409;-52
2022/08/05 05:20:31;;;;;;;14.07;4.25;;;;;;;18.44;100.00;101501.09;5055401;28;20559;-50
2022/08/05 05:22:59;;;;;;;12.98;3.67;;;;;;;18.49;100.00;101497.81;5058897;28;20032;-51
2022/08/05 05:25:24;;;;;;;10.80;3.58;;;;;;;18.39;100.00;101500.88;5058222;28;20125;-47
2022/08/05 05:27:52;;;;;;;14.02;4.25;;;;;;;18.33;100.00;101498.94;5076698;28;20024;-47
2022/08/05 05:30:18;;;;;;;12.60;3.53;;;;;;;18.32;100.00;101510.81;5057436;28;20054;-50
2022/08/05 05:32:44;;;;;;;12.02;3.67;;;;;;;18.26;100.00;101509.69;5061343;28;20217;-47
2022/08/05 05:35:10;;;;;;;9.18;3.30;;;;;;;18.16;100.00;101506.50;5077845;28;20383;-47
2022/08/05 05:38:07;;;;;;;10.88;3.95;;;;;;;18.27;100.00;101503.28;5058861;28;20056;-50
2022/08/05 05:40:33;;;;;;;16.58;3.88;;;;;;;18.21;100.00;101507.59;5031149;28;20440;-47
2022/08/05 05:42:59;;;;;;;14.88;3.92;;;;;;;18.14;100.00;101512.09;5079293;28;20104;-53
2022/08/05 05:45:25;;;;;;;10.55;3.95;;;;;;;18.20;100.00;101519.44;5077039;28;20036;-47
2022/08/05 05:47:50;;;;;;;13.18;3.88;;;;;;;18.20;100.00;101521.31;5073553;28;20494;-50
2022/08/05 05:50:17;;;;;;;13.02;3.75;;;;;;;18.27;100.00;101533.84;5058019;28;20120;-49
2022/08/05 05:52:43;;;;;;;13.75;3.83;;;;;;;18.33;100.00;101529.53;5058129;28;20680;-51
2022/08/05 05:55:11;;;;;;;10.13;3.30;;;;;;;18.33;100.00;101534.94;5058251;28;20106;-50
2022/08/05 05:57:37;;;;;;;17.38;3.75;;;;;;;18.29;100.00;101538.22;5055583;28;20012;-49
2022/08/05 06:00:08;;;;;;;8.27;3.47;;;;;;;18.39;100.00;101541.44;5059202;28;20072;-49
2022/08/05 06:02:33;;;;;;;;;;;;;;;18.56;100.00;101544.69;5058608;28;20553;-50
2022/08/05 06:04:59;;;;;;;9.00;3.47;;;;;;;18.60;100.00;101544.09;5058002;28;19919;-51
2022/08/05 06:07:24;;;;;;;10.55;3.90;;;;;;;18.64;100.00;101539.13;5064142;28;20035;-50
2022/08/05 06:09:49;;;;;;;8.55;3.35;;;;;;;18.62;100.00;101550.16;5060205;28;20020;-49
2022/08/05 06:12:15;;;;;;;11.35;3.33;;;;;;;18.58;100.00;101551.56;5064774;28;20025;-48
2022/08/05 06:14:43;;;;;;;12.23;3.75;;;;;;;18.69;100.00;101544.78;5057050;28;20656;-51
2022/08/05 06:17:11;;;;;;;10.50;3.95;;;;;;;18.77;100.00;101554.59;5054998;28;20437;-48
2022/08/05 06:19:37;;;;;;;13.32;3.70;;;;;;;18.75;100.00;101557.50;5055265;28;21542;-51
2022/08/05 06:22:02;;;;;;;10.10;3.67;;;;;;;18.81;100.00;101554.00;5055025;28;20040;-50
2022/08/05 06:24:28;;;;;;;10.23;3.95;;;;;;;18.79;100.00;101557.97;5075650;28;20020;-50
2022/08/05 06:26:53;;;;;;;14.75;3.92;;;;;;;18.80;100.00;101565.03;5070644;28;20494;-50
2022/08/05 06:29:19;;;;;;;11.55;3.53;;;;;;;18.83;100.00;101560.09;5046818;28;20079;-52
2022/08/05 06:31:45;;;;;;;11.07;3.75;;;;;;;18.93;100.00;101546.22;5048105;28;20597;-52
2022/08/05 06:34:10;;;;;;;8.93;3.90;;;;;;;19.18;100.00;101556.56;5061175;28;20024;-49
2022/08/05 06:36:35;;;;;;;8.45;3.90;;;;;;;19.26;100.00;101559.06;5070079;28;20020;-49
2022/08/05 06:39:01;;;;;;;12.82;3.53;;;;;;;19.35;100.00;101557.06;5072374;28;20027;-51
2022/08/05 06:41:26;;;;;;;14.50;3.92;;;;;;;19.46;100.00;101550.22;5063992;28;20377;-49
2022/08/05 06:43:51;;;;;;;13.88;4.18;;;;;;;19.68;100.00;101559.84;5070757;28;20048;-52
2022/08/05 06:46:17;;;;;;;10.98;3.50;;;;;;;19.80;100.00;101570.16;5056108;28;20032;-53
2022/08/05 06:48:42;;;;;;;15.43;3.53;;;;;;;19.86;100.00;101574.75;5056301;28;20021;-53
2022/08/05 06:51:07;;;;;;;14.30;3.70;;;;;;;19.81;100.00;101577.25;5058116;28;20604;-52
2022/08/05 06:53:34;;;;;;;14.65;3.97;;;;;;;19.80;100.00;101572.84;5056259;28;20244;-51
2022/08/05 06:56:02;;;;;;;11.52;3.50;;;;;;;19.75;100.00;101574.31;5056852;28;20025;-52
2022/08/05 06:58:28;;;;;;;13.48;3.78;;;;;;;19.60;100.00;101570.03;5056638;28;20029;-52
2022/08/05 07:00:53;;;;;;;9.27;3.83;;;;;;;19.56;100.00;101581.28;5064073;28;20032;-52
2022/08/05 07:03:18;;;;;;;9.60;3.50;;;;;;;19.62;100.00;101586.94;5061042;28;20474;-51
2022/08/05 07:05:44;;;;;;;9.70;3.50;;;;;;;19.67;100.00;101588.00;5071825;28;20046;-51
2022/08/05 07:08:09;;;;;;;12.57;3.33;;;;;;;19.80;100.00;101591.81;5076128;28;20036;-53
2022/08/05 07:10:34;;;;;;;11.35;3.35;;;;;;;19.88;100.00;101600.59;5059180;28;20224;-52
2022/08/05 07:18:27;;;;;;;8.80;3.17;;;;;;;19.94;100.00;101601.66;5036364;28;20446;-52
2022/08/05 07:20:53;;;;;;;19.15;4.00;;;;;;;20.04;100.00;101614.81;5036188;28;20029;-53
2022/08/05 07:23:18;;;;;;;11.93;3.30;;;;;;;20.16;100.00;101617.78;5061396;28;20080;-51
2022/08/05 07:25:43;;;;;;;12.10;3.00;;;;;;;20.17;100.00;101619.44;5076235;28;20043;-52
2022/08/05 07:28:09;;;;;;;8.82;2.90;;;;;;;20.15;100.00;101621.53;5057908;28;20367;-53
2022/08/05 07:30:36;;;;;;;8.57;3.00;;;;;;;20.05;100.00;101630.88;5054445;28;20035;-52
2022/08/05 07:33:03;;;;;;;14.65;3.50;;;;;;;20.20;100.00;101624.47;5056233;28;20032;-52
2022/08/05 07:35:30;;;;;;;9.35;3.45;;;;;;;20.31;100.00;101629.25;5060992;28;20119;-51
2022/08/05 07:37:55;;;;;;;11.13;3.38;;;;;;;20.47;100.00;101630.75;5058299;28;20507;-53
2022/08/05 07:40:21;;;;;;;7.40;3.38;;;;;;;20.50;100.00;101628.47;5070637;28;20025;-52
2022/08/05 07:42:47;;;;;;;10.80;3.90;;;;;;;20.49;100.00;101634.09;5055768;28;20031;-53
2022/08/05 07:45:12;;;;;;;8.30;3.58;;;;;;;20.43;100.00;101632.19;5055880;28;20043;-52
2022/08/05 07:47:38;;;;;;;10.68;3.63;;;;;;;20.45;100.00;101630.97;5059250;28;20056;-51
2022/08/05 07:50:04;;;;;;;8.90;2.92;;;;;;;20.44;100.00;101637.44;5055646;28;20079;-53
2022/08/05 07:52:29;;;;;;;8.15;2.90;;;;;;;20.14;99.05;101631.53;5056726;28;20091;-51
2022/08/05 07:54:55;;;;;;;9.07;3.10;;;;;;;20.09;100.00;101640.28;5054673;28;20420;-53
2022/08/05 07:57:20;;;;;;;7.53;3.25;;;;;;;20.30;100.00;101644.72;5055300;28;20098;-53
2022/08/05 07:59:45;;;;;;;9.02;3.17;;;;;;;20.42;98.81;101650.38;5054253;28;20021;-52
2022/08/05 08:02:10;;;;;;;10.00;3.38;;;;;;;20.59;100.00;101645.38;5065365;28;20055;-51
2022/08/05 08:04:36;;;;;;;7.97;3.15;;;;;;;20.75;98.12;101649.56;5068452;28;20023;-48
2022/08/05 08:07:01;;;;;;;9.52;2.65;;;;;;;20.92;97.45;101652.69;5076373;28;20016;-52
2022/08/05 08:09:27;;;;;;;10.32;2.17;;;;;;;21.08;93.10;101653.31;5070785;28;20021;-52
2022/08/05 08:11:52;;;;;;;9.07;1.95;;;;;;;21.20;91.38;101655.16;5055846;28;20063;-51
2022/08/05 08:14:17;;;;;;;5.53;1.75;;;;;;;21.44;91.21;101655.53;5057927;28;20020;-49
2022/08/05 08:16:43;;;;;;;6.47;1.88;;;;;;;21.48;91.27;101664.94;5058077;28;20020;-51
2022/08/05 08:19:09;;;;;;;11.07;1.90;;;;;;;21.83;91.72;101667.34;5057252;28;20032;-53
2022/08/05 08:21:34;;;;;;;10.52;1.88;;;;;;;22.07;89.62;101662.19;5059306;28;20377;-50
2022/08/05 08:23:59;;;;;;;9.70;2.25;;;;;;;22.08;89.81;101672.88;5060168;28;20521;-54
2022/08/05 08:26:25;;;;;;;6.30;2.10;;;;;;;22.04;88.04;101682.50;5075161;28;20216;-52
2022/08/05 08:28:50;;;;;;;6.75;2.28;;;;;;;22.04;89.16;101678.94;5074238;28;20066;-50
2022/08/05 08:31:17;;;;;;;9.40;2.60;;;;;;;21.84;89.75;101679.03;5074049;28;20400;-51
2022/08/05 08:33:42;;;;;;;8.55;2.20;;;;;;;21.84;88.95;101679.88;5075415;28;20032;-52
2022/08/05 08:36:07;;;;;;;6.72;2.70;;;;;;;21.87;90.46;101689.50;5075755;28;20062;-51
2022/08/05 08:38:33;;;;;;;8.93;2.17;;;;;;;21.82;90.18;101678.44;5055485;28;20491;-52
2022/08/05 08:40:59;;;;;;;7.85;2.33;;;;;;;21.72;89.31;101682.41;5057574;28;20032;-52
2022/08/05 08:43:24;;;;;;;6.40;2.20;;;;;;;21.78;88.07;101688.91;5054494;28;20059;-52
2022/08/05 08:45:52;;;;;;;11.45;2.75;;;;;;;21.77;90.38;101687.22;5055198;28;20052;-51
2022/08/05 08:48:19;;;;;;;9.10;2.22;;;;;;;22.04;89.48;101698.00;5054330;28;20179;-50
2022/08/05 08:50:46;;;;;;;8.32;2.45;;;;;;;22.41;85.95;101696.34;5060050;28;20036;-49
2022/08/05 08:53:15;;;;;;;6.00;1.90;;;;;;;22.60;84.84;101702.69;5053639;28;20127;-47
2022/08/05 08:55:40;;;;;;;7.97;2.20;;;;;;;22.40;82.55;101707.44;5054638;28;20562;-51
2022/08/05 08:58:06;;;;;;;5.95;2.38;;;;;;;22.20;86.16;101721.13;5059138;28;20024;-50
2022/08/05 09:00:32;;;;;;;7.20;2.00;;;;;;;22.06;88.00;101715.75;5057828;28;20503;-51
2022/08/05 09:02:57;;;;;;;7.57;2.17;;;;;;;21.98;89.72;101713.31;5059248;28;20303;-48
2022/08/05 09:05:23;;;;;;;9.43;2.20;;;;;;;22.01;89.14;101720.19;5057739;28;20028;-52
2022/08/05 09:07:53;;;;;;;6.75;1.90;;;;;;;21.81;87.82;101729.28;5057856;28;20028;-52
2022/08/05 09:10:19;;;;;;;5.70;2.00;;;;;;;21.38;89.48;101735.19;5056394;28;20451;-50
2022/08/05 09:12:44;;;;;;;6.43;2.03;;;;;;;20.94;88.94;101736.66;5076138;28;20032;-50
2022/08/05 09:15:10;;;;;;;7.72;2.13;;;;;;;20.82;90.87;101737.28;5058151;28;20467;-49
2022/08/05 09:17:35;;;;;;;7.35;2.30;;;;;;;20.91;91.75;101734.38;5044135;28;20048;-51
2022/08/05 09:20:02;;;;;;;7.68;1.98;;;;;;;20.95;90.29;101741.06;5048624;28;20031;-51
2022/08/05 09:22:28;;;;;;;6.45;1.60;;;;;;;21.09;90.14;101729.16;5039198;28;20565;-50
2022/08/05 09:25:01;;;;;;;4.90;1.40;;;;;;;21.51;88.66;101735.19;5037216;28;20068;-50
2022/08/05 09:27:31;;;;;;;7.15;1.88;;;;;;;21.85;85.39;101735.13;5075436;28;20027;-50
2022/08/05 09:29:58;;;;;;;5.22;1.63;;;;;;;22.05;81.36;101737.75;5077996;28;20077;-47
2022/08/05 09:32:34;;;;;;;4.25;1.48;;;;;;;22.42;84.54;101735.28;5070815;28;20421;-51
2022/08/05 09:35:01;;;;;;;11.07;1.42;;;;;;;22.76;81.79;101741.34;5058693;28;20123;-47
2022/08/05 09:37:28;;;;;;;7.72;1.70;;;;;;;23.06;80.81;101753.28;5058251;28;20437;-53
2022/08/05 09:39:53;;;;;;;6.68;1.73;;;;;;;23.26;76.57;101752.28;5055827;28;20098;-51
2022/08/05 09:42:20;;;;;;;6.47;1.20;;;;;;;23.32;74.67;101748.69;5062896;28;20024;-49
2022/08/05 09:44:51;;;;;;;6.55;1.20;;;;;;;23.55;71.44;101758.91;5068727;28;20295;-52
2022/08/05 09:47:19;;;;;;;;;;;;;;;24.02;69.75;101758.44;5059111;28;20487;-52
2022/08/05 09:49:55;;;;;;;10.65;1.30;;;;;;;24.27;66.72;101757.47;5058429;28;20015;-51
2022/08/05 09:52:32;;;;;;;3.78;1.10;;;;;;;24.43;59.13;101754.13;5058005;28;20029;-50
2022/08/05 09:55:00;;;;;;;4.82;0.90;;;;;;;24.72;56.92;101749.72;5054346;28;20467;-48
2022/08/05 09:57:41;;;;;;;4.13;0.90;;;;;;;24.94;52.60;101762.84;5057951;28;20036;-50
2022/08/05 10:00:18;;;;;;;2.00;0.80;;;;;;;24.55;50.89;101767.84;5056969;28;20037;-50
2022/08/05 10:02:46;;;;;;;3.40;0.63;;;;;;;24.25;51.95;101762.34;5076087;28;20044;-51
2022/08/05 10:05:15;;;;;;;2.35;0.70;;;;;;;24.01;48.67;101759.50;5056895;28;20418;-50
2022/08/05 10:07:46;;;;;;;1.83;0.70;;;;;;;23.56;48.58;101770.69;5058235;28;20098;-50
2022/08/05 10:10:11;;;;;;;3.45;0.85;;;;;;;23.36;50.20;101777.16;5056505;28;20112;-50
2022/08/05 10:12:48;;;;;;;5.55;0.80;;;;;;;23.35;52.32;101778.19;5056703;28;20463;-51
2022/08/05 10:15:15;;;;;;;2.80;0.63;;;;;;;23.66;53.82;101771.00;5057429;28;20103;-49
2022/08/05 10:17:42;;;;;;;5.47;0.70;;;;;;;24.29;51.10;101772.59;5078046;28;20109;-48
2022/08/05 10:20:10;;;;;;;2.63;0.70;;;;;;;24.49;48.92;101780.50;5071193;28;20480;-50
2022/08/05 10:22:40;;;;;;;4.78;1.15;;;;;;;24.34;47.15;101780.09;5074509;28;20115;-50
2022/08/05 10:25:06;;;;;;;2.17;0.52;;;;;;;24.23;46.82;101780.84;5058250;28;20029;-49
2022/08/05 10:27:32;;;;;;;3.28;0.90;;;;;;;24.18;49.68;101779.63;5058146;28;20182;-51
2022/08/05 10:29:57;;;;;;;2.20;0.45;;;;;;;24.31;47.76;101783.28;5058526;28;20116;-52
2022/08/05 10:32:23;;;;;;;9.07;0.85;;;;;;;24.18;49.55;101787.81;5056891;28;20024;-50
2022/08/05 10:34:49;;;;;;;1.40;0.63;;;;;;;24.13;49.42;101790.41;5056215;28;20115;-51
2022/08/05 10:37:15;;;;;;;5.78;0.73;;;;;;;24.01;48.06;101793.06;5056880;28;20073;-48
2022/08/05 10:39:44;;;;;;;1.63;0.30;;;;;;;23.69;46.03;101794.25;5055579;28;20028;-50
2022/08/05 10:42:20;;;;;;;5.82;0.63;;;;;;;23.71;49.83;101792.13;5057310;28;20024;-47
2022/08/05 10:44:46;;;;;;;1.08;0.50;;;;;;;23.77;44.17;101794.78;5036399;28;20020;-48
2022/08/05 10:47:13;;;;;;;4.43;0.50;;;;;;;23.98;43.97;101790.81;5043004;28;20419;-51
2022/08/05 10:50:01;;;;;;;1.80;0.40;;;;;;;24.28;47.64;101794.66;5056365;28;20036;-52
2022/08/05 10:52:55;;;;;;;3.17;0.50;;;;;;;24.98;45.77;101802.28;5058860;28;20039;-48
2022/08/05 10:55:22;;;;;;;2.13;0.50;;;;;;;25.42;43.35;101797.38;5041452;28;20043;-47
2022/08/05 10:57:48;;;;;;;0.45;0.40;;;;;;;25.50;43.34;101809.88;5059279;28;20295;-48
2022/08/05 11:00:20;;;;;;;1.23;0.50;;;;;;;25.42;42.15;101815.69;5055349;28;20097;-51
2022/08/05 11:02:57;;;;;;;1.58;0.50;;;;;;;25.17;41.21;101808.53;5059712;28;20040;-51
2022/08/05 11:05:23;;;;;;;2.75;0.63;;;;;;;24.93;42.68;101816.66;5056956;28;20796;-49
2022/08/05 11:08:09;;;;;;;2.55;0.80;;;;;;;24.79;41.10;101817.09;5058783;28;20064;-47
2022/08/05 11:10:36;;;;;;;2.25;0.50;;;;;;;24.34;40.71;101816.41;5035531;28;20140;-51
2022/08/05 11:13:03;;;;;;;10.20;0.80;;;;;;;24.32;41.43;101834.06;5038182;28;20025;-49
2022/08/05 11:15:34;;;;;;;3.30;0.68;;;;;;;24.21;40.20;101820.13;5036336;28;20032;-52
2022/08/05 11:18:07;;;;;;;2.60;0.57;;;;;;;24.65;41.62;101830.13;5054914;28;20339;-47
2022/08/05 11:20:42;;;;;;;2.88;0.60;;;;;;;24.86;40.68;101824.09;5057241;28;20380;-51
2022/08/05 11:23:29;;;;;;;1.17;0.60;;;;;;;25.29;41.62;101823.06;5053994;28;20017;-48